createdAt,value
2023-01-11T00:01:13.199Z,12.63
2023-01-11T00:03:41.539Z,12.67
2023-01-11T00:06:12.336Z,12.71
2023-01-11T00:08:40.929Z,12.70
2023-01-11T00:11:16.355Z,12.67
2023-01-11T00:13:46.281Z,12.65
2023-01-11T00:16:15.463Z,12.64
2023-01-11T00:18:44.084Z,12.64
2023-01-11T00:21:12.401Z,12.66
2023-01-11T00:23:40.719Z,12.65
2023-01-11T00:26:13.436Z,12.64
2023-01-11T00:28:41.777Z,12.67
2023-01-11T00:31:10.604Z,12.70
2023-01-11T00:33:39.011Z,12.73
2023-01-11T00:36:07.629Z,12.70
2023-01-11T00:38:45.033Z,12.65
2023-01-11T00:41:33.201Z,12.63
2023-01-11T00:44:20.320Z,12.63
2023-01-11T00:47:06.669Z,12.66
2023-01-11T00:49:35.169Z,12.70
2023-01-11T00:52:06.455Z,12.71
2023-01-11T00:54:34.938Z,12.70
2023-01-11T00:57:03.368Z,12.70
2023-01-11T00:59:31.609Z,12.66
2023-01-11T01:01:59.950Z,12.65
2023-01-11T01:04:28.345Z,12.67
2023-01-11T01:06:56.769Z,12.67
2023-01-11T01:09:25.044Z,12.64
2023-01-11T01:11:53.642Z,12.61
2023-01-11T01:14:30.214Z,12.55
2023-01-11T01:17:09.896Z,12.49
2023-01-11T01:19:40.065Z,12.42
2023-01-11T01:22:09.223Z,12.38
2023-01-11T01:24:37.646Z,12.35
2023-01-11T01:27:05.961Z,12.32
2023-01-11T01:29:34.336Z,12.25
2023-01-11T01:32:02.588Z,12.20
2023-01-11T01:34:30.884Z,12.15
2023-01-11T01:36:59.238Z,12.11
2023-01-11T01:39:27.770Z,12.06
2023-01-11T01:41:56.127Z,12.03
2023-01-11T01:44:54.393Z,12.00
2023-01-11T01:47:40.153Z,11.99
2023-01-11T01:50:17.475Z,11.98
2023-01-11T01:52:51.301Z,11.97
2023-01-11T01:55:29.735Z,11.98
2023-01-11T01:58:00.323Z,11.99
2023-01-11T02:00:28.807Z,11.97
2023-01-11T02:03:00.439Z,11.96
2023-01-11T02:05:29.180Z,11.95
2023-01-11T02:08:00.828Z,11.89
2023-01-11T02:10:29.809Z,11.87
2023-01-11T02:13:11.389Z,11.84
2023-01-11T02:15:39.765Z,11.83
2023-01-11T02:18:13.653Z,11.84
2023-01-11T02:20:49.519Z,11.84
2023-01-11T02:23:37.123Z,11.84
2023-01-11T02:26:35.413Z,11.84
2023-01-11T02:29:32.098Z,11.82
2023-01-11T02:32:20.053Z,11.82
2023-01-11T02:35:04.708Z,11.79
2023-01-11T02:37:57.397Z,11.76
2023-01-11T02:40:48.614Z,11.75
2023-01-11T02:43:41.270Z,11.72
2023-01-11T02:46:18.523Z,11.70
2023-01-11T02:49:00.050Z,11.69
2023-01-11T02:51:39.900Z,11.67
2023-01-11T02:54:11.261Z,11.66
2023-01-11T02:56:44.409Z,11.67
2023-01-11T02:59:17.749Z,11.68
2023-01-11T03:01:52.411Z,11.68
2023-01-11T03:04:35.563Z,11.69
2023-01-11T03:07:28.790Z,11.67
2023-01-11T03:10:26.069Z,11.69
2023-01-11T03:13:12.680Z,11.70
2023-01-11T03:16:25.945Z,11.70
2023-01-11T03:18:54.343Z,11.70
2023-01-11T03:21:31.013Z,11.68
2023-01-11T03:24:17.073Z,11.66
2023-01-11T03:26:51.589Z,11.63
2023-01-11T03:29:47.794Z,11.61
2023-01-11T03:32:29.574Z,11.58
2023-01-11T03:35:12.871Z,11.54
2023-01-11T03:37:47.056Z,11.53
2023-01-11T03:40:26.820Z,11.51
2023-01-11T03:43:14.586Z,11.49
2023-01-11T03:45:51.764Z,11.45
2023-01-11T03:48:34.470Z,11.44
2023-01-11T03:51:04.272Z,11.42
2023-01-11T03:53:37.010Z,11.43
2023-01-11T03:56:10.534Z,11.42
2023-01-11T03:58:39.769Z,11.41
2023-01-11T04:01:08.903Z,11.41
2023-01-11T04:03:37.199Z,11.39
2023-01-11T04:06:06.141Z,11.36
2023-01-11T04:08:34.499Z,11.32
2023-01-11T04:11:05.643Z,11.29
2023-01-11T04:13:34.990Z,11.28
2023-01-11T04:16:03.576Z,11.28
2023-01-11T04:18:31.984Z,11.30
2023-01-11T04:21:00.436Z,11.33
2023-01-11T04:23:28.795Z,11.36
2023-01-11T04:25:57.053Z,11.36
2023-01-11T04:28:25.462Z,11.38
2023-01-11T04:30:53.807Z,11.39
2023-01-11T04:33:22.102Z,11.41
2023-01-11T04:35:51.149Z,11.43
2023-01-11T04:38:19.810Z,11.45
2023-01-11T04:40:49.416Z,11.43
2023-01-11T04:43:17.749Z,11.42
2023-01-11T04:45:46.128Z,11.41
2023-01-11T04:48:14.499Z,11.39
2023-01-11T04:50:42.813Z,11.35
2023-01-11T04:53:11.118Z,11.32
2023-01-11T04:55:39.590Z,11.29
2023-01-11T04:58:07.919Z,11.31
2023-01-11T05:00:36.202Z,11.29
2023-01-11T05:03:04.498Z,11.28
2023-01-11T05:05:32.876Z,11.27
2023-01-11T05:08:01.204Z,11.27
2023-01-11T05:10:29.508Z,11.28
2023-01-11T05:12:57.854Z,11.28
2023-01-11T05:15:26.282Z,11.27
2023-01-11T05:17:54.579Z,11.27
2023-01-11T05:20:22.914Z,11.27
2023-01-11T05:22:51.245Z,11.27
2023-01-11T05:25:19.625Z,11.25
2023-01-11T05:27:47.995Z,11.22
2023-01-11T05:30:16.563Z,11.22
2023-01-11T05:32:44.873Z,11.21
2023-01-11T05:35:13.333Z,11.20
2023-01-11T05:37:41.720Z,11.19
2023-01-11T05:40:10.686Z,11.18
2023-01-11T05:42:39.039Z,11.18
2023-01-11T05:45:26.337Z,11.16
2023-01-11T05:47:55.042Z,11.16
2023-01-11T05:50:23.390Z,11.14
2023-01-11T05:52:51.976Z,11.15
2023-01-11T05:55:20.648Z,11.14
2023-01-11T05:57:48.943Z,11.17
2023-01-11T06:00:17.678Z,11.18
2023-01-11T06:02:46.251Z,11.16
2023-01-11T06:05:14.634Z,11.14
2023-01-11T06:07:43.055Z,11.12
2023-01-11T06:10:12.130Z,11.08
2023-01-11T06:12:40.474Z,11.07
2023-01-11T06:15:09.421Z,11.10
2023-01-11T06:17:37.840Z,11.12
2023-01-11T06:20:06.722Z,11.10
2023-01-11T06:22:35.130Z,11.09
2023-01-11T06:25:03.446Z,11.06
2023-01-11T06:27:31.755Z,11.07
2023-01-11T06:30:00.129Z,11.07
2023-01-11T06:32:30.725Z,11.08
2023-01-11T06:34:59.034Z,11.05
2023-01-11T06:37:27.541Z,11.06
2023-01-11T06:39:55.952Z,11.03
2023-01-11T06:42:24.262Z,11.03
2023-01-11T06:44:52.563Z,11.00
2023-01-11T06:47:20.859Z,11.01
2023-01-11T06:49:49.158Z,11.04
2023-01-11T06:52:17.418Z,11.03
2023-01-11T06:54:45.870Z,11.01
2023-01-11T06:57:14.239Z,11.04
2023-01-11T06:59:44.256Z,11.06
2023-01-11T07:02:12.822Z,11.06
2023-01-11T07:04:41.099Z,11.09
2023-01-11T07:07:09.459Z,11.08
2023-01-11T07:09:37.846Z,11.05
2023-01-11T07:12:06.430Z,11.06
2023-01-11T07:14:34.860Z,11.03
2023-01-11T07:17:03.174Z,10.97
2023-01-11T07:19:31.442Z,10.98
2023-01-11T07:21:59.690Z,11.00
2023-01-11T07:24:28.118Z,11.00
2023-01-11T07:26:57.173Z,11.03
2023-01-11T07:29:25.579Z,11.05
2023-01-11T07:31:53.860Z,11.07
2023-01-11T07:34:22.178Z,11.08
2023-01-11T07:36:50.514Z,11.08
2023-01-11T07:39:18.796Z,11.09
2023-01-11T07:42:05.864Z,11.09
2023-01-11T07:44:34.235Z,11.09
2023-01-11T07:47:02.604Z,11.10
2023-01-11T07:49:30.999Z,11.11
2023-01-11T07:51:59.340Z,11.11
2023-01-11T07:54:27.765Z,11.12
2023-01-11T07:56:57.516Z,11.13
2023-01-11T07:59:25.929Z,11.14
2023-01-11T08:01:54.387Z,11.12
2023-01-11T08:04:22.669Z,11.09
2023-01-11T08:06:50.908Z,11.12
2023-01-11T08:09:19.199Z,11.11
2023-01-11T08:12:05.656Z,11.11
2023-01-11T08:14:42.935Z,11.09
2023-01-11T08:17:16.881Z,11.07
2023-01-11T08:19:45.291Z,11.06
2023-01-11T08:22:13.985Z,11.03
2023-01-11T08:24:42.636Z,11.04
2023-01-11T08:27:11.305Z,11.02
2023-01-11T08:29:40.793Z,11.02
2023-01-11T08:32:09.095Z,11.03
2023-01-11T08:34:37.771Z,11.02
2023-01-11T08:37:06.308Z,11.02
2023-01-11T08:39:34.836Z,11.02
2023-01-11T08:42:04.425Z,11.05
2023-01-11T08:44:34.678Z,11.00
2023-01-11T08:47:04.466Z,10.94
2023-01-11T08:49:32.860Z,10.89
2023-01-11T08:52:01.164Z,10.87
2023-01-11T08:54:29.574Z,10.86
2023-01-11T08:56:57.917Z,10.81
2023-01-11T08:59:26.208Z,10.79
2023-01-11T09:01:54.608Z,10.77
2023-01-11T09:04:25.550Z,10.76
2023-01-11T09:06:54.668Z,10.76
2023-01-11T09:09:23.504Z,10.75
2023-01-11T09:11:59.012Z,10.74
2023-01-11T09:14:28.921Z,10.74
2023-01-11T09:16:57.979Z,10.71
2023-01-11T09:19:26.939Z,10.69
2023-01-11T09:21:58.116Z,10.71
2023-01-11T09:24:26.479Z,10.71
2023-01-11T09:26:54.809Z,10.69
2023-01-11T09:29:23.243Z,10.71
2023-01-11T09:31:51.930Z,10.71
2023-01-11T09:34:21.826Z,10.71
2023-01-11T09:36:50.106Z,10.73
2023-01-11T09:39:21.326Z,10.72
2023-01-11T09:42:02.819Z,10.72
2023-01-11T09:44:33.884Z,10.74
2023-01-11T09:47:29.208Z,10.73
2023-01-11T09:49:59.570Z,10.72
2023-01-11T09:52:42.970Z,10.73
2023-01-11T09:55:26.120Z,10.74
2023-01-11T09:58:32.857Z,10.77
2023-01-11T10:01:31.944Z,10.75
2023-01-11T10:04:26.756Z,10.77
2023-01-11T10:07:32.895Z,10.78
2023-01-11T10:18:30.855Z,10.80
2023-01-11T10:19:40.614Z,10.80
2023-01-11T10:22:10.442Z,10.83
2023-01-11T10:25:11.804Z,10.85
2023-01-11T10:28:20.965Z,10.86
2023-01-11T10:31:01.464Z,10.86
2023-01-11T10:33:46.573Z,10.87
2023-01-11T10:37:32.027Z,10.87
2023-01-11T10:40:46.626Z,10.86
2023-01-11T10:43:23.495Z,10.87
2023-01-11T10:48:45.304Z,10.89
2023-01-11T10:51:36.431Z,10.93
2023-01-11T10:54:23.151Z,10.94
2023-01-11T10:57:01.708Z,10.95
2023-01-11T11:00:02.387Z,10.96
2023-01-11T11:02:59.338Z,10.95
2023-01-11T11:05:52.541Z,10.97
2023-01-11T11:08:41.165Z,10.98
2023-01-11T11:11:18.983Z,10.98
2023-01-11T11:14:19.497Z,10.97
2023-01-11T11:16:50.712Z,10.98
2023-01-11T11:19:23.476Z,10.99
2023-01-11T11:21:53.224Z,11.00
2023-01-11T11:24:28.799Z,11.01
2023-01-11T11:27:05.968Z,11.01
2023-01-11T11:29:43.209Z,11.01
2023-01-11T11:32:27.262Z,11.01
2023-01-11T11:34:55.721Z,11.03
2023-01-11T11:37:45.920Z,11.05
2023-01-11T11:40:37.175Z,11.08
2023-01-11T11:43:23.651Z,11.12
2023-01-11T11:45:59.848Z,11.11
2023-01-11T11:48:33.771Z,11.11
2023-01-11T11:51:08.008Z,11.11
2023-01-11T11:53:55.729Z,11.14
2023-01-11T11:56:27.256Z,11.15
2023-01-11T11:58:57.272Z,11.17
2023-01-11T12:01:35.808Z,11.19
2023-01-11T12:04:25.830Z,11.21
2023-01-11T12:07:08.053Z,11.22
2023-01-11T12:09:37.877Z,11.22
2023-01-11T12:12:06.680Z,11.23
2023-01-11T12:14:36.311Z,11.24
2023-01-11T12:17:27.365Z,11.25
2023-01-11T12:19:55.725Z,11.24
2023-01-11T12:22:30.008Z,11.24
2023-01-11T12:25:22.477Z,11.24
2023-01-11T12:28:21.380Z,11.25
2023-01-11T12:31:09.034Z,11.24
2023-01-11T12:33:49.583Z,11.28
2023-01-11T12:36:32.279Z,11.28
2023-01-11T12:39:22.615Z,11.26
2023-01-11T12:42:14.219Z,11.25
2023-01-11T12:45:09.592Z,11.23
2023-01-11T12:47:52.923Z,11.21
2023-01-11T12:50:27.052Z,11.24
2023-01-11T12:53:53.658Z,11.26
2023-01-11T12:57:04.382Z,11.25
2023-01-11T12:59:44.870Z,11.23
2023-01-11T13:02:34.457Z,11.21
2023-01-11T13:05:19.543Z,11.22
2023-01-11T13:08:19.645Z,11.22
2023-01-11T13:11:02.660Z,11.20
2023-01-11T13:13:56.531Z,11.16
2023-01-11T13:16:36.620Z,11.12
2023-01-11T13:19:14.396Z,11.10
2023-01-11T13:21:54.103Z,11.06
2023-01-11T13:24:28.858Z,11.01
2023-01-11T13:27:02.722Z,10.96
2023-01-11T13:29:35.873Z,10.95
2023-01-11T13:32:14.489Z,10.95
2023-01-11T13:34:47.460Z,10.93
2023-01-11T13:37:40.884Z,10.91
2023-01-11T13:40:20.961Z,10.89
2023-01-11T13:43:01.051Z,10.89
2023-01-11T13:45:36.988Z,10.89
2023-01-11T13:48:14.375Z,10.86
2023-01-11T13:51:21.432Z,10.88
2023-01-11T13:54:27.065Z,10.86
2023-01-11T13:57:06.065Z,10.88
2023-01-11T13:59:58.734Z,10.88
2023-01-11T14:02:48.778Z,10.89
2023-01-11T14:05:22.258Z,10.91
2023-01-11T14:08:16.267Z,10.92
2023-01-11T14:10:47.592Z,10.95
2023-01-11T14:13:51.953Z,10.97
2023-01-11T14:16:38.291Z,11.01
2023-01-11T14:19:25.854Z,11.03
2023-01-11T14:22:13.920Z,11.03
2023-01-11T14:24:59.303Z,11.02
2023-01-11T14:28:11.269Z,10.99
2023-01-11T14:31:28.532Z,10.99
2023-01-11T14:34:16.580Z,10.98
2023-01-11T14:37:08.910Z,10.99
2023-01-11T14:39:53.717Z,10.99
2023-01-11T14:42:46.236Z,11.00
2023-01-11T14:45:17.757Z,11.00
2023-01-11T14:48:24.240Z,11.00
2023-01-11T14:51:04.043Z,10.99
2023-01-11T14:53:38.840Z,10.99
2023-01-11T14:56:37.112Z,10.98
2023-01-11T14:59:29.035Z,10.98
2023-01-11T15:02:06.229Z,10.98
2023-01-11T15:04:40.266Z,10.98
2023-01-11T15:07:30.724Z,10.98
2023-01-11T15:10:00.947Z,10.98
2023-01-11T15:12:41.142Z,11.00
2023-01-11T15:15:18.173Z,10.99
2023-01-11T15:18:04.818Z,10.98
2023-01-11T15:20:34.589Z,11.01
2023-01-11T15:23:05.867Z,11.02
2023-01-11T15:25:36.684Z,11.02
2023-01-11T15:28:44.042Z,11.02
2023-01-11T15:31:39.940Z,11.06
2023-01-11T15:34:32.192Z,11.09
2023-01-11T15:37:08.809Z,11.09
2023-01-11T15:40:00.004Z,11.10
2023-01-11T15:42:55.219Z,11.11
2023-01-11T15:46:07.762Z,11.11
2023-01-11T15:48:42.040Z,11.12
2023-01-11T15:51:47.173Z,11.13
2023-01-11T15:54:44.312Z,11.17
2023-01-11T15:57:40.784Z,11.19
2023-01-11T16:00:36.280Z,11.23
2023-01-11T16:03:25.506Z,11.24
2023-01-11T16:06:05.179Z,11.26
2023-01-11T16:08:47.671Z,11.31
2023-01-11T16:11:50.665Z,11.35
2023-01-11T16:14:36.559Z,11.40
2023-01-11T16:17:12.170Z,11.46
2023-01-11T16:19:43.752Z,11.51
2023-01-11T16:22:23.259Z,11.54
2023-01-11T16:24:57.032Z,11.57
2023-01-11T16:27:36.418Z,11.61
2023-01-11T16:30:05.144Z,11.67
2023-01-11T16:32:33.655Z,11.70
2023-01-11T16:35:03.498Z,11.73
2023-01-11T16:37:45.939Z,11.79
2023-01-11T16:40:29.390Z,11.83
2023-01-11T16:43:23.254Z,11.87
2023-01-11T16:45:55.205Z,11.94
2023-01-11T16:48:29.060Z,11.98
2023-01-11T16:51:26.659Z,12.00
2023-01-11T16:54:00.044Z,12.02
2023-01-11T16:56:28.578Z,12.04
2023-01-11T16:59:15.420Z,12.07
2023-01-11T17:02:01.685Z,12.09
2023-01-11T17:04:37.166Z,12.10
2023-01-11T17:07:23.225Z,12.11
2023-01-11T17:09:51.860Z,12.14
2023-01-11T17:12:27.580Z,12.16
2023-01-11T17:15:18.726Z,12.18
2023-01-11T17:17:47.610Z,12.22
2023-01-11T17:20:23.117Z,12.22
2023-01-11T17:22:54.650Z,12.22
2023-01-11T17:25:44.113Z,12.26
2023-01-11T17:28:20.377Z,12.29
2023-01-11T17:30:52.121Z,12.31
2023-01-11T17:33:29.235Z,12.32
2023-01-11T17:35:58.174Z,12.37
2023-01-11T17:38:28.797Z,12.38
2023-01-11T17:40:57.750Z,12.41
2023-01-11T17:43:49.007Z,12.44
2023-01-11T17:46:25.600Z,12.45
2023-01-11T17:48:56.936Z,12.49
2023-01-11T17:51:33.191Z,12.50
2023-01-11T17:54:01.908Z,12.53
2023-01-11T17:56:42.667Z,12.55
2023-01-11T17:59:22.364Z,12.56
2023-01-11T18:02:20.754Z,12.59
2023-01-11T18:05:00.517Z,12.60
2023-01-11T18:07:28.863Z,12.60
2023-01-11T18:10:03.166Z,12.64
2023-01-11T18:12:35.325Z,12.66
2023-01-11T18:15:07.418Z,12.68
2023-01-11T18:17:39.907Z,12.73
2023-01-11T18:20:33.507Z,12.78
2023-01-11T18:23:13.006Z,12.81
2023-01-11T18:25:41.443Z,12.85
2023-01-11T18:28:31.610Z,12.87
2023-01-11T18:31:02.557Z,12.89
2023-01-11T18:33:34.130Z,12.89
2023-01-11T18:36:05.875Z,12.89
2023-01-11T18:38:36.978Z,12.90
2023-01-11T18:41:28.723Z,12.93
2023-01-11T18:43:57.403Z,12.94
2023-01-11T18:46:25.788Z,12.95
2023-01-11T18:48:54.276Z,12.98
2023-01-11T18:51:34.449Z,13.02
2023-01-11T18:54:02.811Z,13.04
2023-01-11T18:56:33.341Z,13.07
2023-01-11T18:59:01.618Z,13.10
2023-01-11T19:01:35.261Z,13.12
2023-01-11T19:04:11.108Z,13.15
2023-01-11T19:06:39.477Z,13.18
2023-01-11T19:09:07.782Z,13.20
2023-01-11T19:11:36.529Z,13.20
2023-01-11T19:14:04.795Z,13.20
2023-01-11T19:16:33.095Z,13.21
2023-01-11T19:19:01.406Z,13.18
2023-01-11T19:21:29.730Z,13.19
2023-01-11T19:23:59.690Z,13.15
2023-01-11T19:26:28.762Z,13.15
2023-01-11T19:28:57.104Z,13.14
2023-01-11T19:31:25.631Z,13.13
2023-01-11T19:33:54.094Z,13.15
2023-01-11T19:36:22.455Z,13.15
2023-01-11T19:38:53.266Z,13.16
2023-01-11T19:41:21.775Z,13.16
2023-01-11T19:43:50.190Z,13.18
2023-01-11T19:46:30.726Z,13.19
2023-01-11T19:49:00.080Z,13.20
2023-01-11T19:51:28.364Z,13.22
2023-01-11T19:53:56.650Z,13.23
2023-01-11T19:56:25.109Z,13.24
2023-01-11T19:58:53.508Z,13.26
2023-01-11T20:01:21.843Z,13.29
2023-01-11T20:03:50.209Z,13.31
2023-01-11T20:06:18.580Z,13.29
2023-01-11T20:08:46.955Z,13.28
2023-01-11T20:11:16.816Z,13.28
2023-01-11T20:13:51.295Z,13.30
2023-01-11T20:16:21.861Z,13.31
2023-01-11T20:18:55.047Z,13.35
2023-01-11T20:21:25.755Z,13.36
2023-01-11T20:23:54.114Z,13.40
2023-01-11T20:26:22.374Z,13.46
2023-01-11T20:28:54.257Z,13.47
2023-01-11T20:31:28.752Z,13.49
2023-01-11T20:33:57.382Z,13.53
2023-01-11T20:36:26.798Z,13.57
2023-01-11T20:38:56.607Z,13.63
2023-01-11T20:41:45.416Z,13.70
2023-01-11T20:44:18.357Z,13.77
2023-01-11T20:46:48.529Z,13.80
2023-01-11T20:49:18.157Z,13.84
2023-01-11T20:51:47.809Z,13.88
2023-01-11T20:54:16.614Z,13.90
2023-01-11T20:56:47.856Z,13.89
2023-01-11T20:59:20.713Z,13.87
2023-01-11T21:01:50.718Z,13.87
2023-01-11T21:04:19.947Z,13.81
2023-01-11T21:06:49.334Z,13.76
2023-01-11T21:09:19.389Z,13.78
2023-01-11T21:11:54.684Z,13.76
2023-01-11T21:14:23.933Z,13.73
2023-01-11T21:16:55.726Z,13.72
2023-01-11T21:19:24.274Z,13.70
2023-01-11T21:21:52.733Z,13.67
2023-01-11T21:24:21.737Z,13.67
2023-01-11T21:26:50.121Z,13.66
2023-01-11T21:29:18.481Z,13.65
2023-01-11T21:31:47.486Z,13.58
2023-01-11T21:34:16.321Z,13.55
2023-01-11T21:36:45.161Z,13.55
2023-01-11T21:39:16.393Z,13.50
2023-01-11T21:41:59.904Z,13.50
2023-01-11T21:44:34.271Z,13.47
2023-01-11T21:47:07.368Z,13.46
2023-01-11T21:49:35.736Z,13.49
2023-01-11T21:52:04.001Z,13.47
2023-01-11T21:54:32.364Z,13.45
2023-01-11T21:57:00.673Z,13.44
2023-01-11T21:59:31.056Z,13.44
2023-01-11T22:01:59.356Z,13.43
2023-01-11T22:04:27.660Z,13.45
2023-01-11T22:06:58.266Z,13.46
2023-01-11T22:09:29.052Z,13.49
2023-01-11T22:11:57.427Z,13.47
2023-01-11T22:14:25.884Z,13.46
2023-01-11T22:16:54.596Z,13.46
2023-01-11T22:19:23.335Z,13.47
2023-01-11T22:21:51.684Z,13.46
2023-01-11T22:24:20.013Z,13.48
2023-01-11T22:26:48.370Z,13.51
2023-01-11T22:29:16.788Z,13.54
2023-01-11T22:31:51.996Z,13.57
2023-01-11T22:34:20.758Z,13.58
2023-01-11T22:36:49.854Z,13.59
2023-01-11T22:39:20.406Z,13.61
2023-01-11T22:41:50.899Z,13.61
2023-01-11T22:44:19.663Z,13.64
2023-01-11T22:46:48.531Z,13.65
2023-01-11T22:49:18.262Z,13.66
2023-01-11T22:51:47.107Z,13.69
2023-01-11T22:54:16.074Z,13.72
2023-01-11T22:56:44.558Z,13.75
2023-01-11T22:59:12.964Z,13.74
2023-01-11T23:01:43.018Z,13.74
2023-01-11T23:04:15.139Z,13.78
2023-01-11T23:06:44.117Z,13.79
2023-01-11T23:09:16.831Z,13.79
2023-01-11T23:12:04.430Z,13.79
2023-01-11T23:14:33.842Z,13.82
2023-01-11T23:17:07.905Z,13.84
2023-01-11T23:19:38.339Z,13.88
2023-01-11T23:22:08.047Z,13.88
2023-01-11T23:24:38.123Z,13.88
2023-01-11T23:27:06.580Z,13.87
2023-01-11T23:29:35.109Z,13.85
2023-01-11T23:32:03.554Z,13.82
2023-01-11T23:34:31.918Z,13.83
2023-01-11T23:37:00.230Z,13.84
2023-01-11T23:39:28.769Z,13.82
2023-01-11T23:42:15.433Z,13.83
2023-01-11T23:44:43.868Z,13.83
2023-01-11T23:47:22.855Z,13.86
2023-01-11T23:49:53.115Z,13.84
2023-01-11T23:52:23.638Z,13.83
2023-01-11T23:54:52.306Z,13.83
2023-01-11T23:57:24.886Z,13.81
2023-01-11T23:59:53.441Z,13.79
